sensor_id;sensor_type;location;lat;lon;timestamp;temperature;humidity
15967;DHT22;15175;48.154;11.534;2024-01-30T00:01:11;3.90;99.90
15967;DHT22;15175;48.154;11.534;2024-01-30T00:07:15;3.80;99.90
15967;DHT22;15175;48.154;11.534;2024-01-30T00:13:17;3.80;99.90
15967;DHT22;15175;48.154;11.534;2024-01-30T00:19:20;3.70;99.90
15967;DHT22;15175;48.154;11.534;2024-01-30T00:25:24;3.70;99.90
15967;DHT22;15175;48.154;11.534;2024-01-30T00:31:26;3.60;99.90
15967;DHT22;15175;48.154;11.534;2024-01-30T00:37:28;3.50;99.90
15967;DHT22;15175;48.154;11.534;2024-01-30T00:43:33;3.50;99.90
15967;DHT22;15175;48.154;11.534;2024-01-30T00:49:36;3.40;99.90
15967;DHT22;15175;48.154;11.534;2024-01-30T00:55:38;3.40;99.90
15967;DHT22;15175;48.154;11.534;2024-01-30T01:01:42;3.30;99.90
15967;DHT22;15175;48.154;11.534;2024-01-30T01:07:44;3.30;99.90
15967;DHT22;15175;48.154;11.534;2024-01-30T01:13:48;3.30;99.90
15967;DHT22;15175;48.154;11.534;2024-01-30T01:19:52;3.20;99.90
15967;DHT22;15175;48.154;11.534;2024-01-30T01:25:54;3.20;99.90
15967;DHT22;15175;48.154;11.534;2024-01-30T01:31:56;3.20;99.90
15967;DHT22;15175;48.154;11.534;2024-01-30T01:38:00;3.20;99.90
15967;DHT22;15175;48.154;11.534;2024-01-30T01:44:03;3.10;99.90
15967;DHT22;15175;48.154;11.534;2024-01-30T01:50:06;3.20;99.90
15967;DHT22;15175;48.154;11.534;2024-01-30T01:56:10;3.10;99.90
15967;DHT22;15175;48.154;11.534;2024-01-30T02:02:12;3.10;99.90
15967;DHT22;15175;48.154;11.534;2024-01-30T02:08:14;3.10;99.90
15967;DHT22;15175;48.154;11.534;2024-01-30T02:14:18;3.00;99.90
15967;DHT22;15175;48.154;11.534;2024-01-30T02:20:21;3.00;99.90
15967;DHT22;15175;48.154;11.534;2024-01-30T02:26:25;2.90;99.90
15967;DHT22;15175;48.154;11.534;2024-01-30T02:32:27;2.90;99.90
15967;DHT22;15175;48.154;11.534;2024-01-30T02:38:30;2.90;99.90
15967;DHT22;15175;48.154;11.534;2024-01-30T02:44:33;2.80;99.90
15967;DHT22;15175;48.154;11.534;2024-01-30T02:50:35;2.80;99.90
15967;DHT22;15175;48.154;11.534;2024-01-30T02:56:38;2.80;99.90
15967;DHT22;15175;48.154;11.534;2024-01-30T03:02:41;2.80;99.90
15967;DHT22;15175;48.154;11.534;2024-01-30T03:08:44;2.80;99.90
15967;DHT22;15175;48.154;11.534;2024-01-30T03:14:46;2.80;99.90
15967;DHT22;15175;48.154;11.534;2024-01-30T03:20:49;2.80;99.90
15967;DHT22;15175;48.154;11.534;2024-01-30T03:26:53;2.80;99.90
15967;DHT22;15175;48.154;11.534;2024-01-30T03:32:55;2.80;99.90
15967;DHT22;15175;48.154;11.534;2024-01-30T03:38:59;2.80;99.90
15967;DHT22;15175;48.154;11.534;2024-01-30T03:45:01;2.90;99.90
15967;DHT22;15175;48.154;11.534;2024-01-30T03:51:04;2.90;99.90
15967;DHT22;15175;48.154;11.534;2024-01-30T03:57:08;2.90;99.90
15967;DHT22;15175;48.154;11.534;2024-01-30T04:03:10;2.90;99.90
15967;DHT22;15175;48.154;11.534;2024-01-30T04:09:12;3.00;99.90
15967;DHT22;15175;48.154;11.534;2024-01-30T04:15:16;2.90;99.90
15967;DHT22;15175;48.154;11.534;2024-01-30T04:21:20;2.90;99.90
15967;DHT22;15175;48.154;11.534;2024-01-30T04:27:23;3.00;99.90
15967;DHT22;15175;48.154;11.534;2024-01-30T04:33:26;3.00;99.90
15967;DHT22;15175;48.154;11.534;2024-01-30T04:39:28;3.00;99.90
15967;DHT22;15175;48.154;11.534;2024-01-30T04:45:31;2.90;99.90
15967;DHT22;15175;48.154;11.534;2024-01-30T04:51:34;3.00;99.90
15967;DHT22;15175;48.154;11.534;2024-01-30T04:57:36;2.90;99.90
15967;DHT22;15175;48.154;11.534;2024-01-30T05:03:38;3.00;99.90
15967;DHT22;15175;48.154;11.534;2024-01-30T05:09:42;2.90;99.90
15967;DHT22;15175;48.154;11.534;2024-01-30T05:15:44;2.90;99.90
15967;DHT22;15175;48.154;11.534;2024-01-30T05:21:46;2.80;99.90
15967;DHT22;15175;48.154;11.534;2024-01-30T05:27:50;2.80;99.90
15967;DHT22;15175;48.154;11.534;2024-01-30T05:33:52;2.70;99.90
15967;DHT22;15175;48.154;11.534;2024-01-30T05:39:55;2.70;99.90
15967;DHT22;15175;48.154;11.534;2024-01-30T05:45:58;2.60;99.90
15967;DHT22;15175;48.154;11.534;2024-01-30T05:52:02;2.60;99.90
15967;DHT22;15175;48.154;11.534;2024-01-30T05:58:05;2.50;99.90
15967;DHT22;15175;48.154;11.534;2024-01-30T06:04:08;2.50;99.90
15967;DHT22;15175;48.154;11.534;2024-01-30T06:10:10;2.50;99.90
15967;DHT22;15175;48.154;11.534;2024-01-30T06:16:13;2.50;99.90
15967;DHT22;15175;48.154;11.534;2024-01-30T06:22:16;2.50;99.90
15967;DHT22;15175;48.154;11.534;2024-01-30T06:28:19;2.50;99.90
15967;DHT22;15175;48.154;11.534;2024-01-30T06:34:21;2.60;99.90
15967;DHT22;15175;48.154;11.534;2024-01-30T06:40:25;2.70;99.90
15967;DHT22;15175;48.154;11.534;2024-01-30T06:46:27;2.80;99.90
15967;DHT22;15175;48.154;11.534;2024-01-30T06:52:29;2.80;99.90
15967;DHT22;15175;48.154;11.534;2024-01-30T06:58:33;2.90;99.90
15967;DHT22;15175;48.154;11.534;2024-01-30T07:04:35;2.90;99.90
15967;DHT22;15175;48.154;11.534;2024-01-30T07:10:40;3.00;99.90
15967;DHT22;15175;48.154;11.534;2024-01-30T07:16:43;3.10;99.90
15967;DHT22;15175;48.154;11.534;2024-01-30T07:22:46;3.30;99.90
15967;DHT22;15175;48.154;11.534;2024-01-30T07:28:48;3.30;99.90
15967;DHT22;15175;48.154;11.534;2024-01-30T07:34:52;3.30;99.90
15967;DHT22;15175;48.154;11.534;2024-01-30T07:40:54;3.40;99.90
15967;DHT22;15175;48.154;11.534;2024-01-30T07:46:57;3.60;99.90
15967;DHT22;15175;48.154;11.534;2024-01-30T07:53:02;3.70;99.90
15967;DHT22;15175;48.154;11.534;2024-01-30T07:59:04;3.80;99.90
15967;DHT22;15175;48.154;11.534;2024-01-30T08:05:07;3.90;99.90
15967;DHT22;15175;48.154;11.534;2024-01-30T08:11:13;4.10;99.90
15967;DHT22;15175;48.154;11.534;2024-01-30T08:17:15;4.20;99.90
15967;DHT22;15175;48.154;11.534;2024-01-30T08:29:20;4.60;99.90
15967;DHT22;15175;48.154;11.534;2024-01-30T08:35:22;4.70;99.90
15967;DHT22;15175;48.154;11.534;2024-01-30T08:41:25;4.80;99.90
15967;DHT22;15175;48.154;11.534;2024-01-30T08:47:28;5.00;99.90
15967;DHT22;15175;48.154;11.534;2024-01-30T08:53:30;5.10;99.90
15967;DHT22;15175;48.154;11.534;2024-01-30T08:59:32;5.20;99.90
15967;DHT22;15175;48.154;11.534;2024-01-30T09:05:36;5.30;99.90
15967;DHT22;15175;48.154;11.534;2024-01-30T09:11:38;5.50;99.90
15967;DHT22;15175;48.154;11.534;2024-01-30T09:17:41;5.80;99.90
15967;DHT22;15175;48.154;11.534;2024-01-30T09:23:44;5.90;99.90
15967;DHT22;15175;48.154;11.534;2024-01-30T09:29:47;6.00;99.90
15967;DHT22;15175;48.154;11.534;2024-01-30T09:35:49;6.10;99.90
15967;DHT22;15175;48.154;11.534;2024-01-30T09:42:00;6.20;99.90
15967;DHT22;15175;48.154;11.534;2024-01-30T09:48:04;6.40;99.90
15967;DHT22;15175;48.154;11.534;2024-01-30T09:54:07;6.60;99.90
15967;DHT22;15175;48.154;11.534;2024-01-30T10:00:12;6.80;99.90
15967;DHT22;15175;48.154;11.534;2024-01-30T10:06:15;7.00;99.90
15967;DHT22;15175;48.154;11.534;2024-01-30T10:12:18;7.30;99.90
15967;DHT22;15175;48.154;11.534;2024-01-30T10:18:22;7.40;99.90
15967;DHT22;15175;48.154;11.534;2024-01-30T10:24:25;7.70;99.90
15967;DHT22;15175;48.154;11.534;2024-01-30T10:30:27;7.90;99.90
15967;DHT22;15175;48.154;11.534;2024-01-30T10:36:36;8.00;99.90
15967;DHT22;15175;48.154;11.534;2024-01-30T10:42:43;8.20;99.90
15967;DHT22;15175;48.154;11.534;2024-01-30T10:48:50;8.30;99.90
15967;DHT22;15175;48.154;11.534;2024-01-30T10:54:54;8.60;99.90
15967;DHT22;15175;48.154;11.534;2024-01-30T11:00:57;8.70;99.90
15967;DHT22;15175;48.154;11.534;2024-01-30T11:07:00;8.90;99.90
15967;DHT22;15175;48.154;11.534;2024-01-30T11:13:13;9.20;99.90
15967;DHT22;15175;48.154;11.534;2024-01-30T11:19:22;9.60;99.90
15967;DHT22;15175;48.154;11.534;2024-01-30T11:25:26;10.00;99.90
15967;DHT22;15175;48.154;11.534;2024-01-30T11:31:29;10.40;99.90
15967;DHT22;15175;48.154;11.534;2024-01-30T11:37:32;10.70;99.90
15967;DHT22;15175;48.154;11.534;2024-01-30T11:43:34;10.80;99.90
15967;DHT22;15175;48.154;11.534;2024-01-30T11:49:38;10.90;99.90
15967;DHT22;15175;48.154;11.534;2024-01-30T11:55:40;11.20;99.90
15967;DHT22;15175;48.154;11.534;2024-01-30T12:01:43;11.40;99.70
15967;DHT22;15175;48.154;11.534;2024-01-30T12:07:47;11.60;98.80
15967;DHT22;15175;48.154;11.534;2024-01-30T12:13:50;11.70;98.80
15967;DHT22;15175;48.154;11.534;2024-01-30T12:20:03;11.80;98.20
15967;DHT22;15175;48.154;11.534;2024-01-30T12:26:07;11.90;97.80
15967;DHT22;15175;48.154;11.534;2024-01-30T12:32:15;12.00;95.80
15967;DHT22;15175;48.154;11.534;2024-01-30T12:38:17;12.30;96.10
15967;DHT22;15175;48.154;11.534;2024-01-30T12:44:21;12.30;97.20
15967;DHT22;15175;48.154;11.534;2024-01-30T12:50:23;12.30;96.50
15967;DHT22;15175;48.154;11.534;2024-01-30T12:56:25;12.40;97.30
15967;DHT22;15175;48.154;11.534;2024-01-30T13:02:29;12.60;96.90
15967;DHT22;15175;48.154;11.534;2024-01-30T13:08:35;12.80;95.90
15967;DHT22;15175;48.154;11.534;2024-01-30T13:14:37;13.00;94.30
15967;DHT22;15175;48.154;11.534;2024-01-30T13:20:41;13.50;93.60
15967;DHT22;15175;48.154;11.534;2024-01-30T13:26:44;14.20;95.00
15967;DHT22;15175;48.154;11.534;2024-01-30T13:32:46;14.90;94.10
15967;DHT22;15175;48.154;11.534;2024-01-30T13:38:49;15.20;92.00
15967;DHT22;15175;48.154;11.534;2024-01-30T13:44:52;15.40;92.00
15967;DHT22;15175;48.154;11.534;2024-01-30T13:50:54;15.60;90.50
15967;DHT22;15175;48.154;11.534;2024-01-30T13:56:58;15.70;91.60
15967;DHT22;15175;48.154;11.534;2024-01-30T14:03:00;15.70;91.70
15967;DHT22;15175;48.154;11.534;2024-01-30T14:09:03;15.60;90.80
15967;DHT22;15175;48.154;11.534;2024-01-30T14:15:08;15.50;92.00
15967;DHT22;15175;48.154;11.534;2024-01-30T14:21:11;15.40;92.40
15967;DHT22;15175;48.154;11.534;2024-01-30T14:27:14;15.20;93.20
15967;DHT22;15175;48.154;11.534;2024-01-30T14:33:17;15.00;93.50
15967;DHT22;15175;48.154;11.534;2024-01-30T14:39:20;14.80;93.60
15967;DHT22;15175;48.154;11.534;2024-01-30T14:45:22;14.60;93.40
15967;DHT22;15175;48.154;11.534;2024-01-30T14:51:26;14.40;93.80
15967;DHT22;15175;48.154;11.534;2024-01-30T14:57:30;14.30;94.00
15967;DHT22;15175;48.154;11.534;2024-01-30T15:03:33;14.10;94.30
15967;DHT22;15175;48.154;11.534;2024-01-30T15:09:38;14.00;94.40
15967;DHT22;15175;48.154;11.534;2024-01-30T15:15:40;13.80;94.60
15967;DHT22;15175;48.154;11.534;2024-01-30T15:21:43;13.60;95.30
15967;DHT22;15175;48.154;11.534;2024-01-30T15:27:47;13.40;95.70
15967;DHT22;15175;48.154;11.534;2024-01-30T15:33:49;13.30;95.70
15967;DHT22;15175;48.154;11.534;2024-01-30T15:39:52;13.20;96.20
15967;DHT22;15175;48.154;11.534;2024-01-30T15:45:56;13.00;96.80
15967;DHT22;15175;48.154;11.534;2024-01-30T15:51:59;12.90;97.60
15967;DHT22;15175;48.154;11.534;2024-01-30T15:58:01;12.70;97.20
15967;DHT22;15175;48.154;11.534;2024-01-30T16:04:06;12.60;97.60
15967;DHT22;15175;48.154;11.534;2024-01-30T16:10:08;12.40;98.00
15967;DHT22;15175;48.154;11.534;2024-01-30T16:16:16;12.30;98.60
15967;DHT22;15175;48.154;11.534;2024-01-30T16:22:20;12.10;98.90
15967;DHT22;15175;48.154;11.534;2024-01-30T16:28:24;11.90;99.40
15967;DHT22;15175;48.154;11.534;2024-01-30T16:34:27;11.70;99.90
15967;DHT22;15175;48.154;11.534;2024-01-30T16:40:31;11.50;99.90
15967;DHT22;15175;48.154;11.534;2024-01-30T16:46:34;11.30;99.90
15967;DHT22;15175;48.154;11.534;2024-01-30T16:52:39;11.20;99.90
15967;DHT22;15175;48.154;11.534;2024-01-30T16:58:42;11.00;99.90
15967;DHT22;15175;48.154;11.534;2024-01-30T17:04:45;10.80;99.90
15967;DHT22;15175;48.154;11.534;2024-01-30T17:10:47;10.70;99.90
15967;DHT22;15175;48.154;11.534;2024-01-30T17:16:50;10.60;99.90
15967;DHT22;15175;48.154;11.534;2024-01-30T17:22:53;10.40;99.90
15967;DHT22;15175;48.154;11.534;2024-01-30T17:28:55;10.30;99.90
15967;DHT22;15175;48.154;11.534;2024-01-30T17:35:00;10.20;99.90
15967;DHT22;15175;48.154;11.534;2024-01-30T17:41:03;10.00;99.90
15967;DHT22;15175;48.154;11.534;2024-01-30T17:47:05;9.90;99.90
15967;DHT22;15175;48.154;11.534;2024-01-30T17:53:09;9.80;99.90
15967;DHT22;15175;48.154;11.534;2024-01-30T17:59:11;9.70;99.90
15967;DHT22;15175;48.154;11.534;2024-01-30T18:05:13;9.60;99.90
15967;DHT22;15175;48.154;11.534;2024-01-30T18:11:17;9.50;99.90
15967;DHT22;15175;48.154;11.534;2024-01-30T18:17:19;9.40;99.90
15967;DHT22;15175;48.154;11.534;2024-01-30T18:23:22;9.30;99.90
15967;DHT22;15175;48.154;11.534;2024-01-30T18:29:26;9.30;99.90
15967;DHT22;15175;48.154;11.534;2024-01-30T18:35:28;9.20;99.90
15967;DHT22;15175;48.154;11.534;2024-01-30T18:41:30;9.10;99.90
15967;DHT22;15175;48.154;11.534;2024-01-30T18:47:34;9.10;99.90
15967;DHT22;15175;48.154;11.534;2024-01-30T18:53:36;9.00;99.90
15967;DHT22;15175;48.154;11.534;2024-01-30T18:59:38;8.90;99.90
15967;DHT22;15175;48.154;11.534;2024-01-30T19:05:42;8.90;99.90
15967;DHT22;15175;48.154;11.534;2024-01-30T19:11:44;8.80;99.90
15967;DHT22;15175;48.154;11.534;2024-01-30T19:17:46;8.70;99.90
15967;DHT22;15175;48.154;11.534;2024-01-30T19:23:50;8.70;99.90
15967;DHT22;15175;48.154;11.534;2024-01-30T19:29:54;8.60;99.90
15967;DHT22;15175;48.154;11.534;2024-01-30T19:35:58;8.50;99.90
15967;DHT22;15175;48.154;11.534;2024-01-30T19:42:02;8.40;99.90
15967;DHT22;15175;48.154;11.534;2024-01-30T19:48:05;8.30;99.90
15967;DHT22;15175;48.154;11.534;2024-01-30T19:54:08;8.20;99.90
15967;DHT22;15175;48.154;11.534;2024-01-30T20:00:13;8.10;99.90
15967;DHT22;15175;48.154;11.534;2024-01-30T20:06:15;8.00;99.90
15967;DHT22;15175;48.154;11.534;2024-01-30T20:12:18;7.90;99.90
15967;DHT22;15175;48.154;11.534;2024-01-30T20:18:21;7.80;99.90
15967;DHT22;15175;48.154;11.534;2024-01-30T20:24:24;7.80;99.90
15967;DHT22;15175;48.154;11.534;2024-01-30T20:30:26;7.80;99.90
15967;DHT22;15175;48.154;11.534;2024-01-30T20:36:29;7.80;99.90
15967;DHT22;15175;48.154;11.534;2024-01-30T20:42:32;7.70;99.90
15967;DHT22;15175;48.154;11.534;2024-01-30T20:48:34;7.70;99.90
15967;DHT22;15175;48.154;11.534;2024-01-30T20:54:38;7.70;99.90
15967;DHT22;15175;48.154;11.534;2024-01-30T21:00:40;7.70;99.90
15967;DHT22;15175;48.154;11.534;2024-01-30T21:06:43;7.70;99.90
15967;DHT22;15175;48.154;11.534;2024-01-30T21:12:46;7.70;99.90
15967;DHT22;15175;48.154;11.534;2024-01-30T21:18:49;7.60;99.90
15967;DHT22;15175;48.154;11.534;2024-01-30T21:24:51;7.60;99.90
15967;DHT22;15175;48.154;11.534;2024-01-30T21:30:55;7.60;99.90
15967;DHT22;15175;48.154;11.534;2024-01-30T21:36:57;7.50;99.90
15967;DHT22;15175;48.154;11.534;2024-01-30T21:42:59;7.50;99.90
15967;DHT22;15175;48.154;11.534;2024-01-30T21:49:03;7.50;99.90
15967;DHT22;15175;48.154;11.534;2024-01-30T21:55:08;7.50;99.90
15967;DHT22;15175;48.154;11.534;2024-01-30T22:01:10;7.50;99.90
15967;DHT22;15175;48.154;11.534;2024-01-30T22:07:14;7.40;99.90
15967;DHT22;15175;48.154;11.534;2024-01-30T22:13:16;7.40;99.90
15967;DHT22;15175;48.154;11.534;2024-01-30T22:19:20;7.40;99.90
15967;DHT22;15175;48.154;11.534;2024-01-30T22:25:24;7.40;99.90
15967;DHT22;15175;48.154;11.534;2024-01-30T22:31:26;7.30;99.90
15967;DHT22;15175;48.154;11.534;2024-01-30T22:37:29;7.30;99.90
15967;DHT22;15175;48.154;11.534;2024-01-30T22:43:32;7.30;99.90
15967;DHT22;15175;48.154;11.534;2024-01-30T22:49:34;7.30;99.90
15967;DHT22;15175;48.154;11.534;2024-01-30T22:55:37;7.20;99.90
15967;DHT22;15175;48.154;11.534;2024-01-30T23:01:40;7.20;99.90
15967;DHT22;15175;48.154;11.534;2024-01-30T23:07:43;7.20;99.90
15967;DHT22;15175;48.154;11.534;2024-01-30T23:13:46;7.20;99.90
15967;DHT22;15175;48.154;11.534;2024-01-30T23:19:49;7.20;99.90
15967;DHT22;15175;48.154;11.534;2024-01-30T23:25:52;7.20;99.90
15967;DHT22;15175;48.154;11.534;2024-01-30T23:31:54;7.20;99.90
15967;DHT22;15175;48.154;11.534;2024-01-30T23:37:57;7.20;99.90
15967;DHT22;15175;48.154;11.534;2024-01-30T23:44:00;7.20;99.90
15967;DHT22;15175;48.154;11.534;2024-01-30T23:50:02;7.30;99.90
15967;DHT22;15175;48.154;11.534;2024-01-30T23:56:07;7.30;99.90
